CheckWX is a tool to help pilots better visualize weather data.  It is not intended as a substitute for an official pre-flight weather briefing.

17:57:13 UTC

KOMK METAR
Omak Airport
Omak, Washington, USA
Current

1 hour ago

KOMK 171653Z AUTO 36012KT 10SM FEW100 00/M04 A3004 RMK AO2 SLP187 T00001044 $
Observed
Feb-17 @ 16:53 UTC
Wind
  • 360° at 12 KTS
Visibility
10 SM
Flight Rules
VFR
Cloud Levels
  • Few at 10,000' AGL
Temperature
C / 32°F
Dewpoint
-4°C / 25°F
Humidity
75%
Altimeter
30.04" Hg
Pressure
1018.7 hPa
Previous

2 hours ago

KOMK 171553Z AUTO 32008KT 10SM CLR M03/M05 A3002 RMK AO2 SLP181 T10281050 $
Observed
Feb-17 @ 15:53 UTC
Wind
  • 320° at 8 KTS
Visibility
10 SM
Flight Rules
VFR
Cloud Levels
  • Clear skies
Temperature
-3°C / 27°F
Dewpoint
-5°C / 23°F
Humidity
86%
Altimeter
30.02" Hg
Pressure
1018.1 hPa
Previous

3 hours ago

KOMK 171453Z AUTO VRB03KT 10SM CLR M04/M06 A3000 RMK AO2 SLP175 T10391056 53017 $
Observed
Feb-17 @ 14:53 UTC
Wind
  • Variable at 3 KTS
Visibility
10 SM
Flight Rules
VFR
Cloud Levels
  • Clear skies
Temperature
-4°C / 25°F
Dewpoint
-6°C / 21°F
Humidity
86%
Altimeter
30" Hg
Pressure
1017.5 hPa